Time;durP1;ratioP1;P1;durP2;ratioP2;P2;SDS_P1;SDS_P2;PMS_P1;PMS_P2;Temp;Humidity;BMP_temperature;BMP_pressure;BME280_temperature;BME280_humidity;BME280_pressure;Samples;Min_cycle;Max_cycle;Signal;HPM_P1;HPM_P2
2020/12/13 00:01:38;;;;;;;1.38;0.68;;;6.60;84.10;;;;;;6154005;23;20152;-68
2020/12/13 00:04:05;;;;;;;1.23;0.57;;;6.60;84.00;;;;;;6151965;23;20197;-68
2020/12/13 00:07:03;;;;;;;1.30;0.60;;;6.60;84.30;;;;;;6153134;23;20164;-68
2020/12/13 00:16:15;;;;;;;1.50;0.80;;;6.60;84.30;;;;;;6153327;23;20191;-68
2020/12/13 00:25:39;;;;;;;1.30;0.60;;;6.60;83.60;;;;;;6155643;23;20166;-71
2020/12/13 00:28:49;;;;;;;1.30;0.70;;;6.60;84.00;;;;;;6154594;23;20183;-68
2020/12/13 00:31:18;;;;;;;1.50;0.80;;;6.60;84.20;;;;;;6151933;23;20164;-68
2020/12/13 00:37:07;;;;;;;1.40;0.60;;;6.60;83.90;;;;;;6156110;23;20618;-68
2020/12/13 00:39:37;;;;;;;1.40;0.60;;;6.50;84.00;;;;;;6157844;23;20630;-68
2020/12/13 00:49:44;;;;;;;1.70;0.90;;;6.50;83.70;;;;;;6156721;23;20163;-67
2020/12/13 00:52:19;;;;;;;1.55;0.90;;;6.50;83.70;;;;;;6154441;23;20168;-70
2020/12/13 00:54:46;;;;;;;1.40;0.80;;;6.50;83.50;;;;;;6156358;23;20151;-68
2020/12/13 00:57:18;;;;;;;1.50;0.90;;;6.50;83.90;;;;;;6156576;23;20223;-68
2020/12/13 01:00:10;;;;;;;1.55;0.80;;;6.50;83.60;;;;;;6155455;23;20216;-68
2020/12/13 01:02:36;;;;;;;1.83;0.70;;;6.50;84.10;;;;;;6154981;23;20164;-68
2020/12/13 01:05:10;;;;;;;1.60;1.00;;;6.50;84.10;;;;;;6155859;23;20215;-68
2020/12/13 01:07:38;;;;;;;1.40;0.70;;;6.50;84.20;;;;;;6127832;23;20222;-68
2020/12/13 01:10:04;;;;;;;1.42;0.75;;;6.50;84.10;;;;;;6156731;23;20231;-68
2020/12/13 01:13:05;;;;;;;1.38;0.60;;;6.50;84.30;;;;;;6157014;23;20148;-68
2020/12/13 01:15:34;;;;;;;1.83;1.20;;;6.50;84.40;;;;;;6156775;23;20206;-68
2020/12/13 01:21:28;;;;;;;1.42;0.70;;;6.40;84.50;;;;;;6156234;23;20147;-68
2020/12/13 01:23:56;;;;;;;1.55;0.80;;;6.30;84.50;;;;;;6155447;23;20206;-68
2020/12/13 01:26:52;;;;;;;1.65;0.93;;;6.30;84.80;;;;;;6157230;23;20149;-68
2020/12/13 01:32:42;;;;;;;1.50;0.73;;;6.30;85.10;;;;;;6155918;23;20155;-67
2020/12/13 01:35:25;;;;;;;1.83;0.80;;;6.30;85.10;;;;;;6156883;23;20222;-67
2020/12/13 01:37:53;;;;;;;1.40;0.75;;;6.30;84.90;;;;;;6156283;23;20152;-68
2020/12/13 01:40:21;;;;;;;1.52;0.70;;;6.20;84.80;;;;;;6156640;23;20199;-68
2020/12/13 01:42:47;;;;;;;1.77;0.70;;;6.20;85.30;;;;;;6155533;23;20250;-67
2020/12/13 01:45:18;;;;;;;1.50;0.90;;;6.20;85.20;;;;;;6155732;23;20230;-68
2020/12/13 01:47:45;;;;;;;1.30;0.60;;;6.20;85.10;;;;;;6156409;23;20234;-68
2020/12/13 01:50:23;;;;;;;1.23;0.57;;;6.20;85.00;;;;;;6156258;23;20152;-68
2020/12/13 01:52:51;;;;;;;1.30;0.60;;;6.20;84.70;;;;;;6150963;23;20666;-67
2020/12/13 01:55:21;;;;;;;1.75;0.70;;;6.20;84.90;;;;;;6156593;23;20203;-67
2020/12/13 02:04:04;;;;;;;1.30;0.70;;;6.20;84.80;;;;;;6155744;23;20186;-68
2020/12/13 02:07:02;;;;;;;1.40;0.70;;;6.20;85.00;;;;;;6156126;23;20599;-68
2020/12/13 02:09:28;;;;;;;2.85;1.08;;;6.30;84.60;;;;;;6155572;23;20168;-68
2020/12/13 02:11:56;;;;;;;2.17;0.90;;;6.20;85.20;;;;;;6155737;23;20214;-68
2020/12/13 02:14:22;;;;;;;1.60;0.88;;;6.20;85.40;;;;;;6155377;23;20187;-68
2020/12/13 02:16:51;;;;;;;1.40;0.80;;;6.20;85.40;;;;;;6155555;23;20178;-68
2020/12/13 02:19:19;;;;;;;1.70;1.10;;;6.20;85.40;;;;;;6155679;23;20178;-67
2020/12/13 02:21:47;;;;;;;2.95;0.88;;;6.20;85.40;;;;;;6155738;23;20175;-68
2020/12/13 02:24:15;;;;;;;1.73;0.95;;;6.30;85.20;;;;;;6155818;23;20199;-67
2020/12/13 02:26:43;;;;;;;1.50;0.85;;;6.30;84.70;;;;;;6156290;23;20152;-68
2020/12/13 02:29:10;;;;;;;2.00;0.90;;;6.20;84.80;;;;;;6155291;23;20571;-67
2020/12/13 02:31:37;;;;;;;1.73;1.05;;;6.20;84.70;;;;;;6156245;23;20163;-67
2020/12/13 02:34:04;;;;;;;2.30;1.75;;;6.20;84.90;;;;;;6156373;23;20149;-68
2020/12/13 02:39:54;;;;;;;1.58;0.88;;;6.20;84.90;;;;;;6154832;23;20190;-68
2020/12/13 02:42:20;;;;;;;2.05;0.85;;;6.20;85.10;;;;;;6155843;23;20160;-68
2020/12/13 02:44:47;;;;;;;1.70;0.60;;;6.20;85.10;;;;;;6155310;23;20191;-67
2020/12/13 02:50:36;;;;;;;1.60;0.85;;;6.10;85.80;;;;;;6155473;23;20170;-68
2020/12/13 02:56:25;;;;;;;2.13;0.90;;;6.10;85.90;;;;;;6155399;23;20462;-68
2020/12/13 02:58:52;;;;;;;1.70;1.10;;;6.20;85.70;;;;;;6156095;23;20234;-68
2020/12/13 03:01:18;;;;;;;1.60;1.00;;;6.20;86.00;;;;;;6155385;23;20166;-67
2020/12/13 03:03:57;;;;;;;1.55;0.85;;;6.20;85.80;;;;;;6155997;23;20534;-68
2020/12/13 03:07:09;;;;;;;1.80;0.80;;;6.20;86.10;;;;;;6155660;23;20158;-68
2020/12/13 03:09:37;;;;;;;1.50;0.93;;;6.20;86.00;;;;;;6155298;23;20191;-68
2020/12/13 03:15:26;;;;;;;1.38;0.77;;;6.20;86.10;;;;;;6155303;23;20147;-68
2020/12/13 03:21:50;;;;;;;1.48;0.85;;;6.20;86.50;;;;;;6155725;23;20506;-67
2020/12/13 03:24:17;;;;;;;1.88;1.00;;;6.30;86.40;;;;;;6155365;23;20512;-67
2020/12/13 03:26:50;;;;;;;1.50;0.85;;;6.30;86.40;;;;;;6155566;23;20152;-68
2020/12/13 03:29:16;;;;;;;1.77;0.73;;;6.30;86.20;;;;;;6154730;23;20603;-68
2020/12/13 03:32:03;;;;;;;2.20;0.80;;;6.30;86.50;;;;;;6155842;23;20148;-68
2020/12/13 03:34:29;;;;;;;1.55;0.70;;;6.30;86.70;;;;;;6155199;23;20630;-67
2020/12/13 03:37:33;;;;;;;1.55;0.80;;;6.40;86.60;;;;;;6155466;23;20235;-68
2020/12/13 03:40:00;;;;;;;1.83;0.88;;;6.40;86.90;;;;;;6155222;23;20152;-67
2020/12/13 03:42:28;;;;;;;1.38;0.90;;;6.30;86.80;;;;;;6156005;23;20148;-67
2020/12/13 03:44:56;;;;;;;1.80;1.25;;;6.30;87.00;;;;;;6154823;23;20199;-68
2020/12/13 03:47:47;;;;;;;1.67;1.00;;;6.40;87.20;;;;;;6155895;23;20187;-68
2020/12/13 03:50:13;;;;;;;1.50;0.80;;;6.40;87.10;;;;;;6156975;23;20152;-67
2020/12/13 03:52:40;;;;;;;1.45;0.60;;;6.50;86.70;;;;;;6156823;23;20163;-68
2020/12/13 03:58:29;;;;;;;2.83;1.90;;;6.50;86.30;;;;;;6157115;23;20582;-67
2020/12/13 04:00:57;;;;;;;1.70;1.00;;;6.50;86.40;;;;;;6157507;23;20148;-68
2020/12/13 04:03:26;;;;;;;1.40;0.80;;;6.50;86.50;;;;;;6157227;23;20155;-68
2020/12/13 04:06:33;;;;;;;1.40;0.60;;;6.50;86.80;;;;;;6157844;23;20551;-68
2020/12/13 04:09:00;;;;;;;3.03;0.88;;;6.50;86.90;;;;;;6157213;23;20626;-68
2020/12/13 04:11:27;;;;;;;1.40;0.70;;;6.40;87.00;;;;;;6157377;23;20195;-67
2020/12/13 04:13:53;;;;;;;1.40;0.90;;;6.40;87.10;;;;;;6157316;23;20191;-67
2020/12/13 04:19:43;;;;;;;1.60;0.88;;;6.50;87.10;;;;;;6157522;23;20462;-68
2020/12/13 04:22:09;;;;;;;1.70;0.90;;;6.60;86.60;;;;;;6156666;23;20510;-68
2020/12/13 04:24:36;;;;;;;1.92;0.95;;;6.60;86.70;;;;;;6156350;23;20195;-68
2020/12/13 04:27:02;;;;;;;1.40;0.73;;;6.60;86.70;;;;;;6157082;23;20160;-68
2020/12/13 04:32:52;;;;;;;1.40;0.70;;;6.70;86.80;;;;;;6156989;23;20166;-68
2020/12/13 04:35:21;;;;;;;1.40;0.73;;;6.70;86.30;;;;;;6157213;23;20224;-68
2020/12/13 04:37:51;;;;;;;1.40;0.73;;;6.70;86.20;;;;;;6157693;23;20242;-68
2020/12/13 04:40:18;;;;;;;1.50;0.80;;;6.70;86.20;;;;;;6157287;23;20163;-68
2020/12/13 04:42:44;;;;;;;1.63;0.95;;;6.70;86.00;;;;;;6156568;23;20211;-68
2020/12/13 04:45:11;;;;;;;1.42;0.70;;;6.70;85.90;;;;;;6156580;23;20215;-68
2020/12/13 04:50:38;;;;;;;1.50;0.82;;;6.80;85.80;;;;;;6156178;23;20174;-68
2020/12/13 04:53:08;;;;;;;1.60;1.00;;;6.70;85.80;;;;;;6156747;23;20159;-68
2020/12/13 04:56:01;;;;;;;1.60;1.00;;;6.80;85.70;;;;;;6157031;23;20163;-68
2020/12/13 04:58:28;;;;;;;1.60;0.75;;;6.80;85.40;;;;;;6157149;23;20152;-68
2020/12/13 05:00:58;;;;;;;1.80;0.70;;;6.80;85.10;;;;;;6155913;23;20166;-68
2020/12/13 05:06:47;;;;;;;2.28;1.02;;;6.90;84.90;;;;;;6156540;23;20222;-68
2020/12/13 05:10:00;;;;;;;1.30;0.70;;;6.90;84.90;;;;;;6157154;23;20231;-68
2020/12/13 05:15:50;;;;;;;2.08;0.98;;;6.90;84.90;;;;;;6157593;23;20135;-68
2020/12/13 05:19:09;;;;;;;1.50;0.90;;;6.90;84.70;;;;;;6157454;23;20152;-68
2020/12/13 05:21:37;;;;;;;1.55;0.80;;;6.90;84.50;;;;;;6156886;23;20152;-69
2020/12/13 05:24:55;;;;;;;1.35;0.68;;;6.90;84.60;;;;;;6154475;23;20184;-68
2020/12/13 05:31:02;;;;;;;1.40;0.60;;;6.90;84.50;;;;;;6155938;23;20155;-68
2020/12/13 05:34:20;;;;;;;1.30;0.70;;;7.00;84.00;;;;;;6157193;23;20148;-68
2020/12/13 05:36:47;;;;;;;1.40;0.70;;;7.00;84.10;;;;;;6156674;23;20156;-68
2020/12/13 05:39:14;;;;;;;1.40;0.70;;;7.00;84.00;;;;;;6156686;23;20178;-67
2020/12/13 05:41:40;;;;;;;1.30;0.70;;;7.00;83.90;;;;;;6156048;23;20211;-68
2020/12/13 05:44:25;;;;;;;3.30;1.02;;;7.00;83.90;;;;;;6157098;23;20599;-69
2020/12/13 05:47:05;;;;;;;1.20;0.50;;;7.00;83.80;;;;;;6129358;23;20226;-68
2020/12/13 05:52:14;;;;;;;1.60;0.80;;;7.10;84.00;;;;;;6150956;23;20222;-68
2020/12/13 05:54:41;;;;;;;1.40;0.70;;;7.10;84.10;;;;;;6156072;23;20701;-69
2020/12/13 05:57:10;;;;;;;1.50;0.80;;;7.00;84.20;;;;;;6156475;23;20152;-68
2020/12/13 05:59:43;;;;;;;1.63;0.90;;;7.00;84.40;;;;;;6156207;23;20584;-67
2020/12/13 06:02:12;;;;;;;1.80;0.75;;;7.00;84.30;;;;;;6156734;23;20149;-67
2020/12/13 06:04:43;;;;;;;1.30;0.60;;;7.00;84.40;;;;;;6156371;23;20206;-68
2020/12/13 06:07:12;;;;;;;1.80;1.00;;;7.00;84.40;;;;;;6155813;23;20653;-67
2020/12/13 06:09:41;;;;;;;1.45;0.70;;;7.00;84.40;;;;;;6155826;23;20159;-68
2020/12/13 06:12:09;;;;;;;1.30;0.60;;;7.00;84.30;;;;;;6156617;23;20223;-68
2020/12/13 06:14:41;;;;;;;2.50;0.90;;;7.00;84.00;;;;;;6156167;23;20596;-68
2020/12/13 06:17:35;;;;;;;2.75;0.80;;;7.00;84.00;;;;;;6156246;23;20152;-68
2020/12/13 06:20:03;;;;;;;1.40;0.82;;;7.00;84.10;;;;;;6156050;23;20153;-68
2020/12/13 06:22:59;;;;;;;1.40;0.80;;;7.00;84.10;;;;;;6157159;23;20148;-68
2020/12/13 06:28:49;;;;;;;2.28;1.35;;;7.00;84.20;;;;;;6155861;23;20162;-68
2020/12/13 06:32:11;;;;;;;2.22;1.17;;;6.90;84.30;;;;;;6156170;23;20180;-68
2020/12/13 06:41:19;;;;;;;1.40;0.60;;;6.90;84.50;;;;;;6155924;23;20175;-67
2020/12/13 06:47:27;;;;;;;1.35;0.70;;;6.90;84.30;;;;;;6156215;23;20643;-68
2020/12/13 06:49:54;;;;;;;1.40;0.70;;;6.90;84.30;;;;;;6155498;23;20164;-68
2020/12/13 06:52:37;;;;;;;2.05;0.77;;;6.90;84.50;;;;;;6156173;23;20179;-68
2020/12/13 06:55:07;;;;;;;1.52;0.75;;;6.90;84.30;;;;;;6155011;23;20646;-68
2020/12/13 06:57:42;;;;;;;1.30;0.70;;;6.90;84.20;;;;;;6156435;23;20148;-68
2020/12/13 07:00:10;;;;;;;1.30;0.60;;;6.90;84.10;;;;;;6155879;23;20234;-67
2020/12/13 07:02:58;;;;;;;1.55;0.65;;;6.90;84.10;;;;;;6155550;23;20152;-67
2020/12/13 07:08:52;;;;;;;1.30;0.70;;;6.90;84.00;;;;;;6155567;23;20167;-67
2020/12/13 07:14:43;;;;;;;1.30;0.60;;;6.90;84.10;;;;;;6155965;23;20170;-67
2020/12/13 07:17:15;;;;;;;1.60;0.80;;;6.90;84.20;;;;;;6154543;23;20216;-67
2020/12/13 07:19:42;;;;;;;1.60;0.85;;;6.90;84.20;;;;;;6154299;23;20167;-68
2020/12/13 07:22:34;;;;;;;1.30;0.68;;;6.90;84.20;;;;;;6155582;23;20152;-68
2020/12/13 07:25:15;;;;;;;1.45;0.80;;;6.90;84.30;;;;;;6154219;23;20180;-70
2020/12/13 07:27:43;;;;;;;1.30;0.70;;;6.90;84.10;;;;;;6150969;23;20223;-68
2020/12/13 07:30:58;;;;;;;1.75;0.80;;;6.90;84.20;;;;;;6154147;23;20174;-68
2020/12/13 07:33:26;;;;;;;1.42;0.80;;;6.90;84.10;;;;;;6153441;23;20203;-67
2020/12/13 07:35:55;;;;;;;1.42;0.70;;;7.00;84.00;;;;;;6155677;23;20152;-68
2020/12/13 07:38:42;;;;;;;1.52;0.70;;;7.00;83.70;;;;;;6152400;23;20622;-68
2020/12/13 07:41:19;;;;;;;1.48;0.85;;;7.00;83.60;;;;;;6152664;23;20167;-70
2020/12/13 07:44:42;;;;;;;1.60;1.00;;;7.00;83.60;;;;;;6154954;23;20471;-68
2020/12/13 07:50:53;;;;;;;2.10;1.20;;;7.00;83.30;;;;;;6155781;23;20139;-67
2020/12/13 07:53:24;;;;;;;1.85;1.00;;;7.00;83.50;;;;;;6154881;23;20152;-68
2020/12/13 07:56:34;;;;;;;1.85;1.05;;;7.00;83.40;;;;;;6155731;23;20186;-68
2020/12/13 07:59:15;;;;;;;1.58;0.80;;;7.00;83.40;;;;;;6111546;23;20175;-69
2020/12/13 08:01:44;;;;;;;1.63;1.00;;;7.00;83.30;;;;;;6141041;23;20226;-68
2020/12/13 08:04:16;;;;;;;1.90;1.10;;;7.00;83.50;;;;;;6155029;23;20156;-68
2020/12/13 08:07:18;;;;;;;1.55;0.90;;;7.00;83.00;;;;;;6149614;23;20168;-68
2020/12/13 08:09:44;;;;;;;1.90;0.88;;;7.00;83.10;;;;;;6155577;23;20231;-68
2020/12/13 08:12:12;;;;;;;1.70;0.80;;;7.00;83.20;;;;;;6145400;23;20167;-70
2020/12/13 08:14:39;;;;;;;2.95;1.20;;;7.00;83.20;;;;;;6142211;23;20179;-68
2020/12/13 08:17:13;;;;;;;1.83;1.10;;;7.00;83.10;;;;;;6142533;23;20168;-68
2020/12/13 08:19:44;;;;;;;2.20;1.25;;;7.00;82.90;;;;;;6150650;23;20460;-68
2020/12/13 08:26:17;;;;;;;2.40;1.50;;;7.00;82.60;;;;;;6154615;23;20245;-68
2020/12/13 08:29:06;;;;;;;2.35;1.40;;;6.90;82.40;;;;;;6155445;23;20499;-68
2020/12/13 08:31:33;;;;;;;2.63;1.77;;;7.00;83.00;;;;;;6154086;23;20203;-68
2020/12/13 08:34:23;;;;;;;3.10;1.50;;;7.00;83.00;;;;;;6155400;23;20154;-68
2020/12/13 08:36:53;;;;;;;3.60;2.05;;;7.10;83.00;;;;;;6155568;23;20159;-67
2020/12/13 08:46:04;;;;;;;8.18;4.85;;;7.10;82.40;;;;;;6154204;23;20242;-70
2020/12/13 08:48:31;;;;;;;3.28;1.85;;;7.20;82.20;;;;;;6153039;23;20202;-68
2020/12/13 08:51:05;;;;;;;2.28;1.30;;;7.20;82.60;;;;;;6156875;23;20168;-68
2020/12/13 08:56:55;;;;;;;2.22;1.35;;;7.20;82.10;;;;;;6146125;23;20179;-68
2020/12/13 08:59:23;;;;;;;1.73;1.00;;;7.30;82.00;;;;;;6129860;23;21279;-69
2020/12/13 09:05:32;;;;;;;2.80;1.67;;;7.30;81.90;;;;;;6156560;23;20178;-68
2020/12/13 09:12:18;;;;;;;1.90;1.10;;;7.40;81.90;;;;;;6154716;23;20136;-68
2020/12/13 09:14:45;;;;;;;3.97;2.65;;;7.50;81.80;;;;;;6155487;23;20212;-68
2020/12/13 09:17:22;;;;;;;3.40;2.45;;;7.60;81.80;;;;;;6144978;23;20153;-69
2020/12/13 09:19:50;;;;;;;2.25;1.42;;;7.70;81.60;;;;;;6139523;23;20247;-68
2020/12/13 09:22:22;;;;;;;2.80;1.40;;;7.70;80.60;;;;;;6134503;23;20175;-68
2020/12/13 09:24:50;;;;;;;1.55;0.73;;;7.70;80.10;;;;;;6142224;23;20214;-68
2020/12/13 09:27:23;;;;;;;1.80;0.90;;;7.80;79.80;;;;;;6131054;23;20231;-69
2020/12/13 09:29:51;;;;;;;1.50;0.80;;;7.90;80.00;;;;;;6139900;23;20168;-68
2020/12/13 09:32:20;;;;;;;1.50;0.80;;;7.90;79.70;;;;;;6133958;23;20172;-69
2020/12/13 09:34:48;;;;;;;1.50;0.80;;;7.90;78.90;;;;;;6140393;23;20216;-68
2020/12/13 09:37:16;;;;;;;1.50;0.70;;;7.90;79.00;;;;;;6133259;23;20167;-70
2020/12/13 09:39:44;;;;;;;1.52;0.63;;;7.90;79.20;;;;;;6131741;23;20171;-69
2020/12/13 09:42:11;;;;;;;1.67;0.80;;;7.90;79.30;;;;;;6141166;23;21277;-71
2020/12/13 09:44:39;;;;;;;1.58;1.15;;;7.90;79.00;;;;;;6139575;23;20195;-68
2020/12/13 09:47:07;;;;;;;1.50;0.70;;;8.00;79.10;;;;;;6142168;23;20171;-70
2020/12/13 09:49:34;;;;;;;1.40;0.80;;;8.10;78.70;;;;;;6138923;23;20230;-68
2020/12/13 09:52:02;;;;;;;1.30;0.63;;;8.10;78.50;;;;;;6140500;23;20164;-69
2020/12/13 09:54:29;;;;;;;1.50;0.82;;;8.30;78.30;;;;;;6150464;23;20242;-68
2020/12/13 09:57:00;;;;;;;4.05;1.00;;;8.30;77.40;;;;;;6156146;23;20152;-68
2020/12/13 09:59:27;;;;;;;1.42;0.80;;;8.30;77.30;;;;;;6155716;23;20148;-68
2020/12/13 10:01:54;;;;;;;3.40;0.80;;;8.30;77.70;;;;;;6148826;23;20175;-68
2020/12/13 10:04:22;;;;;;;1.30;0.70;;;8.40;77.40;;;;;;6140926;23;20167;-68
2020/12/13 10:10:31;;;;;;;1.40;0.70;;;8.40;76.90;;;;;;6156241;23;20136;-68
2020/12/13 10:12:58;;;;;;;1.70;1.13;;;8.50;76.70;;;;;;6141729;23;20202;-68
2020/12/13 10:15:24;;;;;;;2.20;0.93;;;8.50;76.20;;;;;;6134644;23;20167;-67
2020/12/13 10:21:36;;;;;;;1.88;0.75;;;8.50;77.10;;;;;;6155931;23;20507;-68
2020/12/13 10:24:09;;;;;;;1.70;0.70;;;8.50;75.90;;;;;;6155393;23;20148;-68
2020/12/13 10:26:39;;;;;;;1.70;0.85;;;8.50;76.30;;;;;;6147863;23;20195;-68
2020/12/13 10:29:10;;;;;;;1.63;0.73;;;8.50;76.00;;;;;;6144018;23;20172;-70
2020/12/13 10:31:38;;;;;;;1.50;0.80;;;8.50;76.10;;;;;;6144604;23;20168;-67
2020/12/13 10:37:27;;;;;;;1.70;0.98;;;8.40;75.70;;;;;;6140905;23;20182;-67
2020/12/13 10:39:53;;;;;;;2.25;1.33;;;8.40;75.80;;;;;;6140343;23;20171;-67
2020/12/13 10:42:20;;;;;;;1.30;0.60;;;8.50;75.90;;;;;;6134484;23;20172;-67
2020/12/13 10:44:47;;;;;;;3.25;1.10;;;8.50;75.80;;;;;;6139564;23;20226;-68
2020/12/13 10:47:14;;;;;;;1.70;0.70;;;8.50;76.00;;;;;;6129525;23;20167;-69
2020/12/13 10:49:40;;;;;;;1.42;0.80;;;8.50;75.60;;;;;;6148030;23;20524;-69
2020/12/13 10:56:16;;;;;;;1.92;1.13;;;8.60;76.30;;;;;;6155188;23;20271;-68
2020/12/13 10:58:44;;;;;;;1.70;1.30;;;8.60;75.50;;;;;;6155100;23;20158;-68
2020/12/13 11:04:46;;;;;;;1.60;0.95;;;8.50;75.90;;;;;;6154601;23;20139;-68
2020/12/13 11:07:20;;;;;;;2.35;1.65;;;8.50;75.80;;;;;;6154154;23;20151;-69
2020/12/13 11:09:47;;;;;;;1.90;1.20;;;8.50;75.90;;;;;;6148721;23;20251;-68
2020/12/13 11:12:13;;;;;;;2.15;1.17;;;8.50;76.10;;;;;;6139495;23;20175;-70
2020/12/13 11:14:39;;;;;;;1.40;0.82;;;8.60;76.20;;;;;;6147359;23;20163;-68
2020/12/13 11:17:28;;;;;;;1.60;1.10;;;8.60;76.20;;;;;;6152589;23;20531;-68
2020/12/13 11:20:03;;;;;;;1.95;1.33;;;8.60;76.20;;;;;;6151093;23;20508;-68
2020/12/13 11:22:33;;;;;;;1.75;0.98;;;8.60;76.20;;;;;;6150086;23;20254;-68
2020/12/13 11:25:06;;;;;;;2.80;1.13;;;8.60;75.60;;;;;;6139193;23;20266;-68
2020/12/13 11:27:39;;;;;;;2.78;1.42;;;8.60;75.80;;;;;;6152201;23;20631;-68
2020/12/13 11:33:16;;;;;;;1.92;0.95;;;8.50;75.70;;;;;;6124810;23;20208;-68
2020/12/13 11:35:45;;;;;;;1.63;0.95;;;8.50;75.90;;;;;;6123511;23;20161;-68
2020/12/13 11:39:05;;;;;;;1.83;1.00;;;8.40;75.70;;;;;;6124698;23;20191;-68
2020/12/13 11:41:35;;;;;;;1.80;0.80;;;8.40;75.50;;;;;;6124628;23;20585;-67
2020/12/13 11:44:25;;;;;;;1.70;0.82;;;8.40;75.70;;;;;;6122848;23;20464;-70
2020/12/13 11:50:58;;;;;;;1.40;0.80;;;8.30;75.60;;;;;;6004834;23;20230;-67
2020/12/13 11:53:26;;;;;;;1.70;0.90;;;8.30;75.90;;;;;;6000923;23;20235;-68
2020/12/13 11:55:55;;;;;;;2.20;0.88;;;8.30;76.10;;;;;;6123834;23;20187;-67
2020/12/13 11:58:22;;;;;;;1.70;0.75;;;8.30;76.20;;;;;;6121040;23;20219;-67
2020/12/13 12:04:17;;;;;;;1.85;1.00;;;8.30;76.40;;;;;;6124714;23;20168;-68
2020/12/13 12:06:55;;;;;;;1.90;0.93;;;8.30;76.50;;;;;;6120081;23;20183;-68
2020/12/13 12:09:24;;;;;;;2.17;1.30;;;8.30;76.70;;;;;;6121137;23;20543;-68
2020/12/13 12:15:23;;;;;;;3.13;2.78;;;8.30;76.60;;;;;;6126539;23;20216;-68
2020/12/13 12:17:57;;;;;;;2.78;1.65;;;8.40;76.90;;;;;;6126671;23;20157;-68
2020/12/13 12:23:54;;;;;;;2.50;1.80;;;8.40;76.70;;;;;;6125992;23;20167;-68
2020/12/13 12:26:43;;;;;;;2.80;1.55;;;8.40;76.60;;;;;;6119945;23;20302;-67
2020/12/13 12:30:10;;;;;;;3.00;2.00;;;8.50;76.10;;;;;;6144765;23;20192;-68
2020/12/13 12:33:24;;;;;;;1.92;1.50;;;8.50;76.20;;;;;;6154206;23;20156;-68
2020/12/13 12:35:54;;;;;;;2.58;1.60;;;8.50;76.40;;;;;;6153956;23;20772;-68
2020/12/13 12:38:23;;;;;;;3.22;2.08;;;8.50;76.40;;;;;;6149992;23;20186;-68
2020/12/13 12:41:24;;;;;;;2.90;1.80;;;8.40;76.40;;;;;;6155896;23;20152;-68
2020/12/13 12:44:10;;;;;;;2.78;1.63;;;8.50;76.60;;;;;;6154768;23;20152;-68
2020/12/13 12:46:36;;;;;;;2.05;1.27;;;8.40;76.60;;;;;;6153872;23;20227;-68
2020/12/13 12:52:29;;;;;;;2.22;1.08;;;8.50;76.50;;;;;;6155195;23;20139;-68
2020/12/13 12:55:02;;;;;;;1.70;1.20;;;8.50;76.40;;;;;;6151420;23;20460;-68
2020/12/13 12:57:31;;;;;;;2.17;1.33;;;8.50;76.20;;;;;;6155720;23;20214;-68
2020/12/13 13:03:51;;;;;;;1.60;1.10;;;8.50;75.90;;;;;;6152708;23;20663;-68
2020/12/13 13:18:29;;;;;;;3.70;1.60;;;8.40;76.40;;;;;;6149639;23;20224;-67
2020/12/13 13:24:24;;;;;;;3.10;1.42;;;8.40;76.60;;;;;;6153498;23;20155;-68
2020/12/13 13:26:53;;;;;;;2.85;1.40;;;8.40;76.60;;;;;;6154093;23;20180;-68
2020/12/13 13:29:21;;;;;;;2.63;2.38;;;8.40;76.90;;;;;;6153445;23;20192;-68
2020/12/13 13:31:54;;;;;;;2.35;1.80;;;8.40;76.90;;;;;;6148688;23;20168;-68
2020/12/13 13:34:20;;;;;;;2.30;1.80;;;8.50;77.10;;;;;;6156481;23;20495;-68
2020/12/13 13:37:19;;;;;;;2.80;2.25;;;8.50;77.10;;;;;;6151735;23;20209;-67
2020/12/13 13:39:46;;;;;;;3.72;2.28;;;8.50;76.90;;;;;;6156115;23;20239;-68
2020/12/13 13:42:32;;;;;;;3.40;2.03;;;8.50;76.80;;;;;;6156270;23;20160;-68
2020/12/13 13:45:06;;;;;;;4.75;3.65;;;8.50;77.10;;;;;;6147619;23;20295;-69
2020/12/13 13:47:36;;;;;;;4.88;3.22;;;8.50;76.80;;;;;;6152404;23;20234;-68
2020/12/13 13:50:03;;;;;;;3.88;2.00;;;8.50;77.30;;;;;;6142055;23;20179;-68
2020/12/13 13:52:33;;;;;;;4.00;2.90;;;8.50;76.30;;;;;;6153005;23;20702;-68
2020/12/13 13:55:15;;;;;;;4.45;2.85;;;8.40;76.40;;;;;;6153036;23;20220;-68
2020/12/13 13:57:42;;;;;;;2.83;1.60;;;8.50;76.70;;;;;;6150587;23;20222;-68
2020/12/13 14:00:21;;;;;;;3.55;2.00;;;8.50;76.90;;;;;;6150463;23;20167;-70
2020/12/13 14:02:47;;;;;;;3.50;1.65;;;8.50;77.20;;;;;;6154475;23;20226;-68
2020/12/13 14:05:14;;;;;;;3.28;2.00;;;8.50;77.30;;;;;;6137145;23;20278;-70
2020/12/13 14:08:08;;;;;;;3.20;1.92;;;8.50;77.20;;;;;;6152714;23;20174;-68
2020/12/13 14:10:35;;;;;;;2.55;1.98;;;8.50;76.80;;;;;;6154189;23;20186;-68
2020/12/13 14:13:42;;;;;;;3.83;1.70;;;8.40;75.80;;;;;;6154438;23;20500;-68
2020/12/13 14:16:12;;;;;;;2.75;1.85;;;8.40;76.20;;;;;;6148824;23;20444;-68
2020/12/13 14:22:00;;;;;;;3.70;2.72;;;8.40;77.10;;;;;;6145298;23;20291;-70
2020/12/13 14:24:27;;;;;;;4.57;2.65;;;8.40;76.90;;;;;;6135085;23;20246;-68
2020/12/13 14:26:54;;;;;;;3.63;2.80;;;8.40;77.20;;;;;;6153472;23;20223;-68
2020/12/13 14:29:21;;;;;;;5.22;3.45;;;8.40;77.40;;;;;;6134618;23;20191;-68
2020/12/13 14:31:51;;;;;;;4.43;2.95;;;8.40;77.50;;;;;;6144367;23;20164;-68
2020/12/13 14:34:18;;;;;;;5.35;3.40;;;8.40;77.40;;;;;;6149155;23;20238;-68
2020/12/13 14:37:04;;;;;;;4.85;3.70;;;8.40;77.30;;;;;;6151783;23;20471;-68
2020/12/13 14:39:31;;;;;;;4.85;3.22;;;8.40;77.30;;;;;;6153847;23;20155;-68
2020/12/13 14:42:12;;;;;;;4.07;2.17;;;8.40;77.30;;;;;;6149477;23;20600;-69
2020/12/13 14:44:39;;;;;;;6.03;2.20;;;8.40;77.50;;;;;;6143843;23;20230;-68
2020/12/13 14:47:08;;;;;;;3.60;2.30;;;8.40;77.30;;;;;;6152624;23;20187;-68
2020/12/13 14:50:17;;;;;;;3.33;1.80;;;8.40;77.10;;;;;;6153830;23;20175;-68
2020/12/13 14:52:43;;;;;;;3.28;2.28;;;8.40;77.10;;;;;;6153185;23;20198;-69
2020/12/13 14:55:13;;;;;;;2.55;1.60;;;8.30;76.50;;;;;;6154558;23;20448;-68
2020/12/13 14:57:44;;;;;;;2.00;1.70;;;8.30;77.10;;;;;;6153404;23;20179;-68
2020/12/13 15:00:26;;;;;;;3.05;1.80;;;8.30;77.30;;;;;;6154744;23;20152;-68
2020/12/13 15:02:52;;;;;;;2.45;1.80;;;8.30;77.50;;;;;;6155676;23;20152;-69
2020/12/13 15:05:19;;;;;;;3.15;2.05;;;8.30;77.30;;;;;;6143000;23;20274;-67
2020/12/13 15:07:46;;;;;;;2.63;1.80;;;8.30;77.30;;;;;;6148175;23;20222;-68
2020/12/13 15:10:12;;;;;;;3.30;2.15;;;8.30;77.30;;;;;;6151025;23;20172;-69
2020/12/13 15:12:39;;;;;;;4.63;3.33;;;8.20;77.30;;;;;;6149329;23;20202;-68
2020/12/13 15:15:10;;;;;;;9.43;5.40;;;8.20;77.60;;;;;;6136237;23;20172;-70
2020/12/13 15:20:51;;;;;;;10.88;8.32;;;8.20;78.80;;;;;;6149616;23;20175;-69
2020/12/13 15:23:18;;;;;;;13.77;8.38;;;8.10;79.40;;;;;;6152906;23;20223;-68
2020/12/13 15:25:44;;;;;;;13.90;8.65;;;8.00;79.40;;;;;;6153443;23;20192;-68
2020/12/13 15:28:29;;;;;;;13.80;8.25;;;8.00;79.70;;;;;;6155953;23;20148;-68
2020/12/13 15:41:06;;;;;;;7.50;5.13;;;7.80;79.70;;;;;;6117850;23;20168;-68
2020/12/13 15:43:33;;;;;;;7.53;5.45;;;7.80;79.80;;;;;;6105658;23;20164;-68
2020/12/13 15:46:00;;;;;;;4.70;3.13;;;7.70;80.10;;;;;;6109755;23;20188;-70
2020/12/13 15:48:26;;;;;;;3.78;2.70;;;7.60;80.70;;;;;;6105592;23;20377;-68
2020/12/13 15:50:53;;;;;;;2.85;2.05;;;7.50;81.00;;;;;;6122170;23;20226;-68
2020/12/13 15:53:19;;;;;;;4.45;2.60;;;7.40;81.30;;;;;;6104357;23;20223;-68
2020/12/13 15:55:46;;;;;;;3.83;3.10;;;7.30;81.50;;;;;;6113363;23;20176;-68
2020/12/13 16:01:45;;;;;;;7.05;5.45;;;7.30;81.90;;;;;;6125753;23;20575;-68
2020/12/13 16:04:17;;;;;;;6.78;5.72;;;7.20;81.90;;;;;;6125041;23;20159;-68
2020/12/13 16:13:29;;;;;;;33.42;23.48;;;7.10;82.80;;;;;;6124142;23;20486;-68
2020/12/13 16:19:31;;;;;;;13.65;10.15;;;7.00;83.00;;;;;;6126214;23;20488;-68
2020/12/13 16:21:57;;;;;;;11.65;10.27;;;7.00;83.30;;;;;;6116254;23;20235;-68
2020/12/13 16:24:24;;;;;;;12.27;10.73;;;7.00;83.70;;;;;;6111670;23;20172;-68
2020/12/13 16:26:51;;;;;;;12.35;10.38;;;6.90;83.30;;;;;;6123738;23;20199;-68
2020/12/13 16:29:34;;;;;;;14.77;10.77;;;6.80;83.70;;;;;;6134185;23;20192;-68
2020/12/13 16:32:01;;;;;;;11.15;8.55;;;6.80;84.20;;;;;;6150825;23;20683;-68
2020/12/13 16:34:39;;;;;;;10.68;9.55;;;6.70;84.60;;;;;;6145026;23;20164;-70
2020/12/13 16:37:10;;;;;;;8.60;7.57;;;6.60;84.80;;;;;;6144806;23;20171;-69
2020/12/13 16:39:39;;;;;;;90.30;76.38;;;6.70;84.90;;;;;;6140211;23;20183;-68
2020/12/13 16:42:13;;;;;;;213.80;141.90;;;6.70;85.00;;;;;;6138850;23;20171;-69
2020/12/13 16:44:41;;;;;;;147.80;110.10;;;6.70;85.00;;;;;;6141435;23;20576;-68
2020/12/13 16:47:21;;;;;;;42.13;29.77;;;6.70;84.90;;;;;;6135220;23;20231;-69
2020/12/13 16:50:13;;;;;;;17.52;13.77;;;6.80;85.50;;;;;;6141073;23;20168;-68
2020/12/13 16:55:27;;;;;;;54.25;38.80;;;6.70;83.90;;;;;;6135914;23;20207;-68
2020/12/13 16:57:55;;;;;;;484.65;296.10;;;6.70;84.10;;;;;;6142190;23;20172;-68
2020/12/13 17:00:22;;;;;;;245.68;138.95;;;6.70;83.90;;;;;;6136233;23;20175;-68
2020/12/13 17:02:49;;;;;;;73.82;42.50;;;6.60;83.70;;;;;;6143120;23;20175;-68
2020/12/13 17:05:16;;;;;;;61.38;33.88;;;6.60;83.70;;;;;;6136680;23;20196;-70
2020/12/13 17:07:44;;;;;;;33.22;20.75;;;6.50;84.30;;;;;;6142829;23;20488;-67